createdAt,value
2019-05-29T00:02:27.655Z,13.58
2019-05-29T00:04:57.362Z,13.30
2019-05-29T00:07:27.003Z,14.73
2019-05-29T00:09:56.618Z,11.15
2019-05-29T00:12:26.306Z,12.40
2019-05-29T00:14:56.040Z,13.58
2019-05-29T00:17:25.628Z,13.05
2019-05-29T00:19:55.327Z,13.95
2019-05-29T00:22:24.906Z,12.98
2019-05-29T00:24:54.547Z,13.85
2019-05-29T00:27:24.226Z,14.60
2019-05-29T00:29:53.874Z,13.00
2019-05-29T00:32:23.457Z,14.95
2019-05-29T00:34:53.242Z,15.00
2019-05-29T00:37:22.827Z,14.40
2019-05-29T00:39:52.495Z,15.00
2019-05-29T00:42:22.156Z,14.75
2019-05-29T00:44:51.854Z,16.15
2019-05-29T00:47:21.457Z,16.97
2019-05-29T00:49:51.153Z,15.45
2019-05-29T00:52:20.810Z,15.90
2019-05-29T00:54:50.520Z,18.40
2019-05-29T00:57:20.167Z,18.05
2019-05-29T00:59:49.771Z,15.70
2019-05-29T01:02:19.828Z,17.05
2019-05-29T01:04:49.505Z,16.90
2019-05-29T01:07:20.412Z,17.42
2019-05-29T01:09:50.158Z,19.07
2019-05-29T01:12:19.735Z,17.48
2019-05-29T01:14:50.570Z,18.27
2019-05-29T01:17:20.437Z,17.35
2019-05-29T01:19:50.051Z,12.98
2019-05-29T01:22:20.289Z,16.35
2019-05-29T01:24:50.097Z,16.65
2019-05-29T01:27:20.813Z,16.23
2019-05-29T01:29:50.621Z,16.82
2019-05-29T01:32:20.215Z,16.00
2019-05-29T01:34:49.822Z,14.43
2019-05-29T01:37:20.316Z,14.80
2019-05-29T01:39:50.208Z,14.47
2019-05-29T01:42:19.779Z,16.42
2019-05-29T01:45:03.824Z,17.10
2019-05-29T01:47:21.514Z,14.98
2019-05-29T01:49:51.373Z,15.30
2019-05-29T01:52:21.886Z,15.45
2019-05-29T01:54:51.651Z,17.55
2019-05-29T01:57:21.799Z,17.00
2019-05-29T01:59:51.642Z,15.90
2019-05-29T02:02:21.934Z,15.18
2019-05-29T02:04:51.780Z,15.18
2019-05-29T02:07:22.463Z,17.25
2019-05-29T02:09:52.206Z,15.93
2019-05-29T02:12:22.350Z,14.28
2019-05-29T02:14:52.399Z,15.35
2019-05-29T02:17:21.998Z,13.65
2019-05-29T02:19:51.628Z,13.05
2019-05-29T02:22:25.064Z,14.98
2019-05-29T02:24:54.759Z,13.93
2019-05-29T02:27:25.507Z,14.33
2019-05-29T02:29:55.207Z,14.83
2019-05-29T02:32:25.615Z,17.42
2019-05-29T02:34:55.299Z,16.52
2019-05-29T02:37:26.127Z,14.55
2019-05-29T02:39:55.862Z,16.62
2019-05-29T02:42:26.982Z,14.53
2019-05-29T02:44:56.786Z,12.78
2019-05-29T02:47:28.008Z,15.10
2019-05-29T02:49:57.849Z,13.65
2019-05-29T02:52:28.689Z,13.30
2019-05-29T02:54:58.852Z,12.90
2019-05-29T02:57:29.078Z,14.03
2019-05-29T02:59:58.816Z,11.93
2019-05-29T03:02:30.033Z,9.68
2019-05-29T03:04:59.742Z,8.88
2019-05-29T03:07:30.787Z,8.00
2019-05-29T03:10:01.419Z,7.00
2019-05-29T03:12:31.450Z,6.70
2019-05-29T03:15:01.567Z,7.08
2019-05-29T03:17:31.912Z,7.25
2019-05-29T03:20:01.784Z,8.95
2019-05-29T03:22:33.146Z,8.33
2019-05-29T03:25:02.620Z,9.98
2019-05-29T03:27:33.860Z,13.50
2019-05-29T03:30:06.710Z,13.13
2019-05-29T03:32:45.698Z,10.68
2019-05-29T03:35:08.285Z,9.08
2019-05-29T03:37:38.704Z,9.60
2019-05-29T03:40:08.954Z,8.08
2019-05-29T03:42:39.145Z,8.13
2019-05-29T03:45:09.125Z,8.30
2019-05-29T03:47:38.763Z,8.63
2019-05-29T03:50:08.962Z,7.37
2019-05-29T03:52:39.110Z,5.90
2019-05-29T03:55:08.811Z,5.40
2019-05-29T03:57:38.532Z,5.30
2019-05-29T04:00:09.406Z,5.00
2019-05-29T04:02:39.169Z,5.47
2019-05-29T04:05:09.083Z,3.92
2019-05-29T04:07:38.727Z,5.50
2019-05-29T04:10:09.719Z,4.03
2019-05-29T04:12:40.247Z,5.35
2019-05-29T04:15:12.403Z,4.40
2019-05-29T04:17:44.040Z,4.25
2019-05-29T04:20:14.076Z,4.25
2019-05-29T04:22:46.068Z,4.10
2019-05-29T04:25:15.702Z,4.33
2019-05-29T04:27:46.828Z,5.00
2019-05-29T04:30:16.726Z,4.37
2019-05-29T04:32:46.400Z,3.95
2019-05-29T04:35:15.962Z,3.47
2019-05-29T04:37:45.680Z,4.03
2019-05-29T04:40:15.275Z,3.10
2019-05-29T04:42:44.936Z,3.45
2019-05-29T04:45:14.669Z,4.50
2019-05-29T04:47:44.399Z,3.45
2019-05-29T04:50:14.126Z,4.03
2019-05-29T04:52:43.230Z,3.70
2019-05-29T04:55:12.451Z,3.22
2019-05-29T04:57:41.403Z,3.30
2019-05-29T05:00:10.610Z,3.33
2019-05-29T05:02:39.605Z,3.15
2019-05-29T05:05:09.245Z,3.25
2019-05-29T05:07:39.479Z,3.17
2019-05-29T05:10:08.719Z,3.40
2019-05-29T05:12:40.063Z,3.77
2019-05-29T05:15:09.365Z,4.35
2019-05-29T05:17:39.991Z,3.22
2019-05-29T05:20:10.180Z,4.10
2019-05-29T05:22:40.953Z,3.35
2019-05-29T05:25:10.774Z,3.87
2019-05-29T05:27:40.712Z,2.95
2019-05-29T05:30:10.741Z,3.02
2019-05-29T05:32:41.152Z,3.20
2019-05-29T05:35:14.186Z,3.10
2019-05-29T05:37:45.115Z,3.20
2019-05-29T05:40:14.881Z,3.50
2019-05-29T05:42:44.529Z,3.00
2019-05-29T05:45:14.268Z,3.22
2019-05-29T05:47:56.425Z,2.90
2019-05-29T05:50:15.830Z,3.60
2019-05-29T05:52:45.443Z,3.20
2019-05-29T05:55:15.283Z,3.12
2019-05-29T05:57:44.879Z,3.35
2019-05-29T06:00:18.983Z,3.42
2019-05-29T06:02:52.098Z,2.87
2019-05-29T06:05:19.882Z,3.25
2019-05-29T06:07:49.534Z,3.10
2019-05-29T06:10:19.618Z,3.40
2019-05-29T06:12:49.203Z,2.85
2019-05-29T06:15:18.835Z,2.75
2019-05-29T06:18:10.158Z,2.70
2019-05-29T06:20:19.712Z,3.42
2019-05-29T06:22:49.292Z,3.58
2019-05-29T06:25:19.173Z,3.10
2019-05-29T06:27:48.962Z,2.47
2019-05-29T06:30:18.890Z,3.20
2019-05-29T06:32:48.471Z,2.65
2019-05-29T06:35:17.449Z,3.10
2019-05-29T06:37:46.419Z,3.10
2019-05-29T06:40:18.890Z,3.25
2019-05-29T06:42:47.856Z,3.05
2019-05-29T06:45:18.420Z,3.12
2019-05-29T06:47:47.424Z,2.25
2019-05-29T06:50:19.167Z,2.83
2019-05-29T06:52:48.136Z,3.37
2019-05-29T06:55:17.114Z,2.77
2019-05-29T06:57:46.104Z,3.15
2019-05-29T07:00:34.150Z,2.90
2019-05-29T07:02:47.283Z,1.92
2019-05-29T07:05:17.003Z,2.55
2019-05-29T07:07:46.691Z,2.90
2019-05-29T07:10:16.467Z,2.77
2019-05-29T07:12:46.500Z,2.58
2019-05-29T07:15:16.906Z,2.55
2019-05-29T07:17:46.716Z,2.60
2019-05-29T07:20:16.552Z,2.22
2019-05-29T07:22:47.117Z,2.40
2019-05-29T07:25:16.924Z,2.87
2019-05-29T07:27:47.024Z,2.50
2019-05-29T07:30:17.899Z,2.00
2019-05-29T07:32:56.757Z,2.70
2019-05-29T07:35:18.817Z,2.52
2019-05-29T07:37:48.113Z,2.27
2019-05-29T07:40:17.274Z,2.00
2019-05-29T07:42:53.592Z,2.33
2019-05-29T07:45:17.085Z,2.15
2019-05-29T07:47:46.755Z,2.65
2019-05-29T07:50:15.958Z,2.30
2019-05-29T07:52:45.302Z,2.22
2019-05-29T07:55:15.307Z,2.37
2019-05-29T07:57:44.914Z,2.70
2019-05-29T08:00:14.189Z,2.70
2019-05-29T08:02:43.425Z,2.12
2019-05-29T08:05:12.995Z,2.27
2019-05-29T08:07:43.257Z,2.35
2019-05-29T08:10:12.891Z,2.47
2019-05-29T08:12:46.785Z,2.60
2019-05-29T08:15:12.614Z,3.22
2019-05-29T08:17:42.030Z,3.10
2019-05-29T08:20:11.265Z,2.08
2019-05-29T08:22:40.383Z,2.15
2019-05-29T08:25:09.443Z,2.12
2019-05-29T08:27:38.524Z,2.10
2019-05-29T08:30:07.671Z,1.90
2019-05-29T08:32:36.670Z,2.33
2019-05-29T08:35:05.727Z,1.65
2019-05-29T08:37:34.720Z,1.85
2019-05-29T08:40:03.828Z,2.20
2019-05-29T08:42:33.500Z,2.00
2019-05-29T08:45:03.225Z,2.40
2019-05-29T08:47:32.832Z,1.95
2019-05-29T08:50:17.273Z,2.08
2019-05-29T08:52:33.681Z,2.25
2019-05-29T08:55:03.502Z,1.80
2019-05-29T08:57:33.118Z,2.22
2019-05-29T09:00:02.716Z,1.95
2019-05-29T09:02:32.331Z,1.92
2019-05-29T09:05:01.293Z,2.12
2019-05-29T09:07:30.890Z,2.50
2019-05-29T09:10:00.510Z,2.02
2019-05-29T09:12:30.292Z,1.77
2019-05-29T09:14:59.911Z,1.90
2019-05-29T09:17:29.527Z,2.05
2019-05-29T09:19:59.100Z,2.02
2019-05-29T09:22:28.696Z,2.40
2019-05-29T09:24:58.307Z,1.90
2019-05-29T09:27:27.953Z,2.45
2019-05-29T09:29:57.557Z,2.10
2019-05-29T09:32:48.483Z,2.25
2019-05-29T09:34:58.429Z,2.20
2019-05-29T09:37:28.154Z,1.87
2019-05-29T09:39:57.738Z,2.40
2019-05-29T09:42:27.356Z,2.15
2019-05-29T09:44:56.915Z,1.75
2019-05-29T09:47:26.538Z,2.30
2019-05-29T09:49:56.119Z,2.20
2019-05-29T09:52:25.756Z,2.67
2019-05-29T09:54:56.179Z,2.15
2019-05-29T09:57:25.886Z,2.30
2019-05-29T09:59:56.403Z,2.02
2019-05-29T10:02:26.765Z,1.92
2019-05-29T10:04:57.866Z,1.90
2019-05-29T10:07:27.738Z,2.35
2019-05-29T10:09:58.624Z,2.00
2019-05-29T10:12:28.640Z,2.85
2019-05-29T10:14:58.935Z,2.35
2019-05-29T10:17:29.644Z,1.60
2019-05-29T10:19:59.299Z,1.90
2019-05-29T10:22:28.940Z,1.80
2019-05-29T10:24:59.861Z,2.30
2019-05-29T10:27:29.781Z,2.75
2019-05-29T10:29:59.354Z,2.02
2019-05-29T10:32:28.951Z,1.85
2019-05-29T10:34:58.528Z,2.58
2019-05-29T10:37:28.204Z,2.08
2019-05-29T10:40:00.286Z,2.20
2019-05-29T10:42:29.377Z,2.17
2019-05-29T10:44:58.940Z,2.15
2019-05-29T10:47:28.557Z,2.67
2019-05-29T10:49:58.168Z,2.40
2019-05-29T10:52:27.755Z,2.02
2019-05-29T10:54:57.336Z,2.30
2019-05-29T10:57:27.029Z,1.67
2019-05-29T10:59:56.627Z,1.70
2019-05-29T11:02:26.346Z,1.77
2019-05-29T11:04:59.091Z,2.25
2019-05-29T11:07:27.302Z,2.47
2019-05-29T11:09:56.895Z,1.70
2019-05-29T11:12:26.576Z,1.85
2019-05-29T11:14:56.965Z,1.70
2019-05-29T11:17:26.699Z,2.50
2019-05-29T11:19:58.074Z,1.95
2019-05-29T11:22:27.595Z,2.17
2019-05-29T11:24:58.439Z,1.60
2019-05-29T11:27:28.726Z,1.40
2019-05-29T11:29:59.086Z,2.95
2019-05-29T11:32:28.957Z,2.17
2019-05-29T11:34:59.692Z,2.00
2019-05-29T11:37:28.714Z,2.12
2019-05-29T11:39:58.772Z,2.02
2019-05-29T11:42:28.336Z,1.45
2019-05-29T11:44:57.507Z,2.67
2019-05-29T11:47:26.585Z,2.27
2019-05-29T11:49:55.709Z,1.75
2019-05-29T11:52:29.557Z,1.62
2019-05-29T11:54:59.166Z,2.00
2019-05-29T11:57:26.109Z,2.02
2019-05-29T11:59:55.815Z,1.75
2019-05-29T12:02:25.818Z,1.72
2019-05-29T12:04:55.172Z,2.35
2019-05-29T12:07:24.306Z,1.80
2019-05-29T12:09:53.438Z,1.95
2019-05-29T12:12:23.142Z,1.87
2019-05-29T12:15:00.296Z,1.90
2019-05-29T12:17:24.031Z,1.55
2019-05-29T12:19:56.030Z,2.02
2019-05-29T12:22:25.836Z,2.00
2019-05-29T12:24:56.508Z,1.82
2019-05-29T12:27:26.332Z,2.17
2019-05-29T12:29:56.669Z,1.35
2019-05-29T12:32:26.435Z,1.62
2019-05-29T12:34:58.206Z,1.65
2019-05-29T12:37:27.321Z,1.70
2019-05-29T12:39:57.447Z,2.02
2019-05-29T12:42:27.298Z,1.50
2019-05-29T12:44:57.586Z,1.87
2019-05-29T12:47:27.294Z,1.85
2019-05-29T12:49:57.668Z,1.98
2019-05-29T12:52:27.583Z,1.62
2019-05-29T12:54:58.012Z,2.30
2019-05-29T12:57:27.635Z,2.12
2019-05-29T12:59:58.013Z,1.80
2019-05-29T13:02:27.710Z,3.25
2019-05-29T13:05:11.166Z,2.00
2019-05-29T13:07:28.664Z,2.30
2019-05-29T13:09:58.901Z,1.80
2019-05-29T13:12:28.720Z,1.95
2019-05-29T13:14:58.601Z,1.67
2019-05-29T13:17:31.422Z,1.87
2019-05-29T13:20:18.205Z,1.90
2019-05-29T13:22:34.595Z,1.80
2019-05-29T13:25:05.494Z,2.02
2019-05-29T13:27:35.266Z,1.95
2019-05-29T13:30:08.094Z,1.65
2019-05-29T13:32:39.264Z,2.02
2019-05-29T13:35:08.752Z,2.10
2019-05-29T13:37:38.332Z,1.90
2019-05-29T13:40:08.514Z,1.70
2019-05-29T13:42:39.356Z,2.47
2019-05-29T13:45:17.869Z,1.92
2019-05-29T13:47:42.487Z,2.00
2019-05-29T13:50:13.001Z,2.35
2019-05-29T13:52:43.290Z,1.92
2019-05-29T13:55:14.788Z,1.95
2019-05-29T13:57:44.370Z,2.40
2019-05-29T14:00:34.362Z,2.05
2019-05-29T14:02:46.738Z,1.82
2019-05-29T14:05:16.803Z,1.85
2019-05-29T14:07:46.467Z,2.30
2019-05-29T14:10:16.355Z,1.90
2019-05-29T14:12:45.947Z,1.47
2019-05-29T14:15:16.063Z,2.05
2019-05-29T14:17:45.882Z,2.00
2019-05-29T14:20:16.424Z,1.87
2019-05-29T14:22:46.051Z,2.22
2019-05-29T14:25:16.328Z,2.08
2019-05-29T14:27:47.270Z,2.45
2019-05-29T14:30:17.508Z,2.35
2019-05-29T14:32:47.310Z,2.02
2019-05-29T14:35:17.041Z,2.05
2019-05-29T14:37:46.661Z,2.85
2019-05-29T14:40:16.462Z,1.70
2019-05-29T14:42:46.134Z,2.00
2019-05-29T14:45:15.760Z,2.10
2019-05-29T14:47:45.395Z,2.40
2019-05-29T14:50:15.247Z,2.20
2019-05-29T14:52:44.867Z,1.72
2019-05-29T14:55:18.936Z,1.65
2019-05-29T14:57:48.650Z,2.37
2019-05-29T15:00:24.737Z,2.10
2019-05-29T15:02:49.552Z,2.15
2019-05-29T15:05:19.585Z,1.90
2019-05-29T15:07:49.257Z,2.10
2019-05-29T15:10:27.028Z,2.40
2019-05-29T15:12:51.257Z,2.75
2019-05-29T15:15:21.534Z,2.05
2019-05-29T15:17:51.145Z,2.30
2019-05-29T15:20:21.035Z,2.12
2019-05-29T15:22:50.156Z,1.65
2019-05-29T15:25:24.006Z,1.77
2019-05-29T15:27:49.834Z,2.20
2019-05-29T15:30:23.174Z,1.98
2019-05-29T15:32:49.983Z,2.80
2019-05-29T15:35:20.063Z,2.00
2019-05-29T15:37:49.341Z,2.30
2019-05-29T15:40:18.296Z,2.58
2019-05-29T15:42:47.313Z,1.62
2019-05-29T15:45:18.353Z,2.12
2019-05-29T15:47:47.464Z,2.40
2019-05-29T15:50:17.990Z,2.00
2019-05-29T15:52:47.903Z,2.08
2019-05-29T15:55:28.338Z,2.33
2019-05-29T15:57:49.127Z,1.55
2019-05-29T16:00:18.798Z,1.92
2019-05-29T16:02:49.606Z,2.35
2019-05-29T16:05:21.318Z,2.15
2019-05-29T16:07:51.019Z,1.95
2019-05-29T16:10:21.262Z,1.70
2019-05-29T16:12:50.267Z,2.22
2019-05-29T16:15:24.523Z,2.22
2019-05-29T16:17:54.255Z,1.60
2019-05-29T16:20:24.491Z,2.25
2019-05-29T16:22:54.219Z,2.05
2019-05-29T16:25:38.797Z,1.85
2019-05-29T16:27:55.234Z,2.40
2019-05-29T16:30:24.963Z,2.92
2019-05-29T16:32:54.704Z,1.95
2019-05-29T16:35:24.327Z,2.45
2019-05-29T16:37:54.110Z,2.72
2019-05-29T16:40:25.291Z,1.87
2019-05-29T16:42:54.945Z,1.90
2019-05-29T16:45:24.149Z,1.30
2019-05-29T16:47:55.386Z,1.85
2019-05-29T16:50:25.009Z,1.62
2019-05-29T16:52:54.020Z,2.55
2019-05-29T16:55:23.182Z,2.05
2019-05-29T16:57:52.554Z,2.25
2019-05-29T17:00:24.662Z,2.40
2019-05-29T17:02:53.672Z,2.02
2019-05-29T17:05:24.167Z,1.65
2019-05-29T17:07:58.048Z,2.52
2019-05-29T17:10:39.287Z,1.80
2019-05-29T17:13:08.907Z,1.80
2019-05-29T17:15:38.565Z,2.10
2019-05-29T17:18:08.214Z,2.20
2019-05-29T17:20:48.054Z,2.12
2019-05-29T17:23:18.859Z,2.22
2019-05-29T17:25:48.107Z,2.08
2019-05-29T17:28:22.408Z,2.05
2019-05-29T17:30:48.140Z,2.45
2019-05-29T17:33:21.166Z,2.20
2019-05-29T17:35:50.316Z,2.52
2019-05-29T17:38:19.331Z,3.10
2019-05-29T17:40:48.303Z,2.52
2019-05-29T17:43:21.415Z,2.35
2019-05-29T17:45:48.430Z,2.33
2019-05-29T17:48:17.679Z,2.37
2019-05-29T17:50:47.077Z,2.25
2019-05-29T17:53:16.111Z,2.80
2019-05-29T17:55:46.807Z,2.80
2019-05-29T17:58:19.283Z,2.15
2019-05-29T18:00:51.661Z,2.33
2019-05-29T18:03:20.694Z,2.47
2019-05-29T18:05:49.690Z,2.58
2019-05-29T18:08:20.494Z,2.50
2019-05-29T18:10:50.098Z,2.72
2019-05-29T18:13:19.494Z,2.27
2019-05-29T18:15:48.628Z,2.85
2019-05-29T18:18:17.726Z,2.70
2019-05-29T18:20:46.814Z,2.60
2019-05-29T18:23:15.873Z,3.47
2019-05-29T18:25:46.401Z,2.67
2019-05-29T18:28:15.430Z,3.83
2019-05-29T18:30:44.391Z,2.50
2019-05-29T18:33:13.552Z,3.20
2019-05-29T18:35:42.488Z,2.70
2019-05-29T18:38:13.007Z,3.58
2019-05-29T18:40:41.957Z,3.15
2019-05-29T18:43:10.986Z,3.70
2019-05-29T18:45:39.980Z,3.90
2019-05-29T18:48:09.075Z,3.60
2019-05-29T18:50:38.046Z,3.10
2019-05-29T18:53:07.064Z,3.45
2019-05-29T18:55:36.118Z,3.42
2019-05-29T18:58:05.177Z,3.95
2019-05-29T19:00:34.211Z,3.70
2019-05-29T19:03:03.272Z,3.65
2019-05-29T19:05:32.304Z,4.15
2019-05-29T19:08:01.427Z,4.03
2019-05-29T19:10:30.392Z,4.20
2019-05-29T19:12:59.419Z,3.83
2019-05-29T19:15:30.072Z,4.33
2019-05-29T19:17:59.317Z,3.80
2019-05-29T19:20:28.660Z,3.67
2019-05-29T19:22:57.818Z,4.50
2019-05-29T19:25:26.887Z,4.03
2019-05-29T19:27:55.909Z,3.75
2019-05-29T19:30:25.118Z,3.37
2019-05-29T19:32:54.075Z,4.67
2019-05-29T19:35:23.521Z,4.10
2019-05-29T19:37:52.668Z,4.22
2019-05-29T19:40:21.794Z,4.62
2019-05-29T19:42:54.338Z,5.37
2019-05-29T19:45:21.410Z,4.25
2019-05-29T19:47:50.372Z,4.92
2019-05-29T19:50:19.465Z,5.05
2019-05-29T19:52:48.438Z,4.15
2019-05-29T19:55:17.496Z,4.83
2019-05-29T19:57:55.780Z,5.55
2019-05-29T20:00:17.320Z,4.47
2019-05-29T20:02:46.269Z,4.67
2019-05-29T20:05:15.373Z,5.35
2019-05-29T20:07:44.444Z,5.83
2019-05-29T20:10:13.684Z,5.60
2019-05-29T20:12:42.767Z,4.75
2019-05-29T20:15:11.882Z,4.40
2019-05-29T20:17:40.920Z,5.60
2019-05-29T20:20:11.444Z,4.62
2019-05-29T20:22:40.990Z,5.95
2019-05-29T20:25:13.581Z,5.50
2019-05-29T20:27:42.491Z,5.20
2019-05-29T20:30:15.991Z,5.62
2019-05-29T20:32:45.002Z,6.05
2019-05-29T20:35:14.186Z,5.55
2019-05-29T20:37:43.145Z,5.75
2019-05-29T20:40:12.301Z,6.35
2019-05-29T20:42:42.450Z,5.80
2019-05-29T20:45:11.578Z,6.10
2019-05-29T20:47:41.952Z,6.97
2019-05-29T20:50:11.263Z,6.47
2019-05-29T20:52:41.357Z,6.37
2019-05-29T20:55:10.564Z,6.22
2019-05-29T20:57:40.061Z,6.08
2019-05-29T21:00:09.437Z,5.50
2019-05-29T21:02:38.522Z,6.03
2019-05-29T21:05:07.775Z,6.62
2019-05-29T21:07:36.916Z,6.62
2019-05-29T21:10:06.137Z,5.95
2019-05-29T21:12:35.254Z,5.70
2019-05-29T21:15:04.545Z,6.75
2019-05-29T21:17:33.763Z,6.03
2019-05-29T21:20:05.826Z,7.20
2019-05-29T21:22:34.888Z,5.12
2019-05-29T21:25:08.855Z,5.50
2019-05-29T21:27:35.074Z,5.67
2019-05-29T21:30:04.770Z,5.30
2019-05-29T21:32:33.799Z,6.05
2019-05-29T21:35:02.745Z,5.42
2019-05-29T21:37:33.264Z,6.35
2019-05-29T21:40:04.339Z,5.53
2019-05-29T21:42:33.428Z,5.10
2019-05-29T21:45:02.379Z,6.60
2019-05-29T21:47:31.422Z,6.15
2019-05-29T21:50:04.828Z,6.40
2019-05-29T21:52:33.972Z,6.83
2019-05-29T21:55:03.010Z,6.15
2019-05-29T21:57:33.045Z,5.78
2019-05-29T22:00:02.239Z,5.83
2019-05-29T22:02:31.402Z,6.28
2019-05-29T22:05:00.499Z,5.62
2019-05-29T22:07:29.529Z,5.58
2019-05-29T22:09:58.783Z,5.95
2019-05-29T22:12:27.955Z,6.00
2019-05-29T22:14:57.014Z,5.35
2019-05-29T22:17:26.089Z,5.50
2019-05-29T22:19:55.125Z,5.45
2019-05-29T22:22:26.547Z,4.60
2019-05-29T22:24:55.553Z,5.35
2019-05-29T22:27:24.649Z,4.65
2019-05-29T22:29:55.541Z,4.05
2019-05-29T22:32:24.293Z,4.65
2019-05-29T22:34:53.662Z,5.47
2019-05-29T22:37:22.837Z,4.60
2019-05-29T22:39:51.808Z,4.45
2019-05-29T22:42:20.873Z,3.92
2019-05-29T22:44:49.947Z,4.30
2019-05-29T22:47:19.041Z,4.70
2019-05-29T22:49:47.987Z,5.08
2019-05-29T22:52:17.027Z,4.85
2019-05-29T22:54:45.985Z,5.10
2019-05-29T22:57:15.050Z,5.33
2019-05-29T22:59:44.012Z,5.33
2019-05-29T23:02:13.133Z,5.20
2019-05-29T23:04:42.079Z,5.85
2019-05-29T23:07:11.086Z,5.50
2019-05-29T23:09:40.087Z,6.15
2019-05-29T23:12:09.071Z,5.40
2019-05-29T23:14:39.682Z,4.72
2019-05-29T23:17:10.631Z,5.28
2019-05-29T23:19:39.631Z,6.08
2019-05-29T23:22:08.676Z,5.37
2019-05-29T23:24:37.638Z,5.10
2019-05-29T23:27:07.933Z,6.25
2019-05-29T23:29:48.385Z,7.00
2019-05-29T23:32:07.534Z,6.60
2019-05-29T23:34:36.538Z,6.65
2019-05-29T23:37:05.621Z,5.70
2019-05-29T23:39:34.861Z,5.35
2019-05-29T23:42:03.845Z,6.90
2019-05-29T23:44:32.845Z,6.50
2019-05-29T23:47:04.184Z,6.40
2019-05-29T23:49:33.555Z,7.05
2019-05-29T23:52:05.074Z,6.50
2019-05-29T23:54:34.256Z,6.70
2019-05-29T23:57:04.167Z,5.53
2019-05-29T23:59:33.440Z,5.60
